Time;durP1;ratioP1;P1;durP2;ratioP2;P2;SDS_P1;SDS_P2;PMS_P1;PMS_P2;Temp;Humidity;BMP_temperature;BMP_pressure;BME280_temperature;BME280_humidity;BME280_pressure;Samples;Min_cycle;Max_cycle;Signal;HPM_P1;HPM_P2
2023/08/04 00:00:43;;;;;;;3.55;0.75;;;;;;;;;;5040356;28;20048;-87
2023/08/04 00:03:09;;;;;;;6.32;1.17;;;;;;;;;;5057602;28;20190;-87
2023/08/04 00:05:35;;;;;;;4.38;0.65;;;;;;;;;;5039957;28;20048;-87
2023/08/04 00:08:01;;;;;;;4.35;0.80;;;;;;;;;;5073315;28;20044;-87
2023/08/04 00:10:27;;;;;;;2.08;0.75;;;;;;;;;;5056559;28;20127;-88
2023/08/04 00:12:54;;;;;;;4.43;0.88;;;;;;;;;;5074251;28;20137;-87
2023/08/04 00:15:20;;;;;;;3.72;1.00;;;;;;;;;;5074013;28;20049;-87
2023/08/04 00:17:46;;;;;;;2.85;0.80;;;;;;;;;;5057583;28;20051;-87
2023/08/04 00:20:12;;;;;;;3.28;1.00;;;;;;;;;;5040545;28;20496;-87
2023/08/04 00:22:39;;;;;;;3.58;1.08;;;;;;;;;;5073804;28;20049;-88
2023/08/04 00:25:05;;;;;;;2.05;0.73;;;;;;;;;;5075265;28;20044;-88
2023/08/04 00:27:31;;;;;;;6.28;0.93;;;;;;;;;;5056040;28;20084;-88
2023/08/04 00:29:57;;;;;;;4.30;0.90;;;;;;;;;;5056686;28;20131;-87
2023/08/04 00:32:24;;;;;;;6.32;1.00;;;;;;;;;;5074737;28;20052;-87
2023/08/04 00:34:50;;;;;;;5.80;1.30;;;;;;;;;;5072870;28;20714;-88
2023/08/04 00:37:16;;;;;;;4.93;1.45;;;;;;;;;;5056920;28;20097;-88
2023/08/04 00:39:42;;;;;;;3.00;1.17;;;;;;;;;;5074240;28;20481;-87
2023/08/04 00:42:08;;;;;;;4.63;1.50;;;;;;;;;;5073689;28;20044;-87
2023/08/04 00:44:34;;;;;;;4.53;1.30;;;;;;;;;;5057764;28;20052;-87
2023/08/04 00:47:00;;;;;;;4.32;1.20;;;;;;;;;;5074298;28;20131;-88
2023/08/04 00:49:26;;;;;;;6.88;2.03;;;;;;;;;;5074217;28;20044;-88
2023/08/04 00:51:52;;;;;;;9.90;1.50;;;;;;;;;;5057900;28;20075;-87
2023/08/04 00:54:19;;;;;;;5.10;1.60;;;;;;;;;;5044987;28;20538;-88
2023/08/04 00:56:46;;;;;;;4.35;1.20;;;;;;;;;;5062414;28;20048;-88
2023/08/04 00:59:12;;;;;;;4.88;1.48;;;;;;;;;;5040342;28;20053;-87
2023/08/04 01:01:38;;;;;;;4.22;1.63;;;;;;;;;;5073526;28;20075;-88
2023/08/04 01:04:04;;;;;;;5.80;2.20;;;;;;;;;;5074424;28;20102;-88
2023/08/04 01:06:36;;;;;;;4.65;1.70;;;;;;;;;;5056849;28;20127;-88
2023/08/04 01:09:21;;;;;;;5.07;2.20;;;;;;;;;;5073153;28;20052;-87
2023/08/04 01:12:01;;;;;;;3.88;1.80;;;;;;;;;;5057568;28;20051;-87
2023/08/04 01:14:28;;;;;;;7.35;2.28;;;;;;;;;;5074487;28;20092;-88
2023/08/04 01:16:54;;;;;;;6.15;1.90;;;;;;;;;;5058198;28;20053;-88
2023/08/04 01:19:20;;;;;;;4.10;1.88;;;;;;;;;;5077343;28;20086;-88
2023/08/04 01:21:46;;;;;;;5.97;2.15;;;;;;;;;;5077028;28;20124;-88
2023/08/04 01:24:13;;;;;;;3.97;1.25;;;;;;;;;;5076182;28;20040;-88
2023/08/04 01:26:41;;;;;;;5.47;1.98;;;;;;;;;;5077123;28;20055;-88
2023/08/04 01:29:10;;;;;;;5.70;2.00;;;;;;;;;;5076792;28;20546;-88
2023/08/04 01:31:36;;;;;;;6.47;2.53;;;;;;;;;;5077363;28;20052;-88
2023/08/04 01:34:03;;;;;;;5.35;1.75;;;;;;;;;;5076882;28;20086;-88
2023/08/04 01:36:29;;;;;;;10.18;3.13;;;;;;;;;;5059578;28;20045;-88
2023/08/04 01:38:55;;;;;;;11.25;2.58;;;;;;;;;;5060023;28;20465;-88
2023/08/04 01:41:22;;;;;;;6.03;2.88;;;;;;;;;;5077954;28;20066;-88
2023/08/04 01:43:48;;;;;;;6.68;2.63;;;;;;;;;;5043760;28;20045;-88
2023/08/04 01:46:14;;;;;;;6.78;2.17;;;;;;;;;;5060177;28;20059;-88
2023/08/04 01:48:40;;;;;;;3.70;2.03;;;;;;;;;;5076307;28;20166;-88
2023/08/04 01:51:07;;;;;;;3.50;2.00;;;;;;;;;;5076407;28;20393;-88
2023/08/04 01:53:33;;;;;;;6.07;1.60;;;;;;;;;;5044094;28;20434;-88
2023/08/04 01:55:59;;;;;;;8.45;2.35;;;;;;;;;;5077321;28;20045;-88
2023/08/04 01:58:25;;;;;;;5.30;2.03;;;;;;;;;;5075418;28;20137;-88
2023/08/04 02:00:51;;;;;;;4.82;1.90;;;;;;;;;;5059864;28;20137;-88
2023/08/04 02:03:18;;;;;;;2.40;1.83;;;;;;;;;;5059449;28;20048;-88
2023/08/04 02:05:50;;;;;;;3.28;1.60;;;;;;;;;;5076486;28;20074;-88
2023/08/04 02:08:16;;;;;;;3.35;1.85;;;;;;;;;;5076180;28;20076;-88
2023/08/04 02:10:49;;;;;;;4.10;1.75;;;;;;;;;;5076240;28;20519;-88
2023/08/04 02:13:15;;;;;;;3.95;2.30;;;;;;;;;;5076355;28;20044;-88
2023/08/04 02:15:41;;;;;;;3.25;1.92;;;;;;;;;;5076597;28;20055;-88
2023/08/04 02:18:07;;;;;;;5.90;2.13;;;;;;;;;;5076536;28;20089;-88
2023/08/04 02:20:33;;;;;;;6.45;2.40;;;;;;;;;;5059583;28;20056;-88
2023/08/04 02:22:59;;;;;;;3.40;2.55;;;;;;;;;;5058816;28;20438;-88
2023/08/04 02:25:26;;;;;;;3.50;1.92;;;;;;;;;;5059714;28;20044;-88
2023/08/04 02:27:52;;;;;;;4.97;2.03;;;;;;;;;;5059972;28;20128;-88
2023/08/04 02:30:18;;;;;;;5.20;2.33;;;;;;;;;;5077226;28;20040;-88
2023/08/04 02:32:44;;;;;;;2.67;1.80;;;;;;;;;;5076827;28;20056;-88
2023/08/04 02:35:10;;;;;;;4.93;1.70;;;;;;;;;;5075820;28;20132;-88
2023/08/04 02:37:36;;;;;;;9.05;2.20;;;;;;;;;;5075241;28;20484;-88
2023/08/04 02:40:02;;;;;;;4.80;2.20;;;;;;;;;;5059226;28;20045;-88
2023/08/04 02:42:28;;;;;;;2.95;1.85;;;;;;;;;;5075781;28;20048;-88
2023/08/04 02:44:55;;;;;;;5.50;2.03;;;;;;;;;;5076192;28;20109;-88
2023/08/04 02:47:21;;;;;;;4.40;2.25;;;;;;;;;;5075975;28;20036;-88
2023/08/04 02:49:47;;;;;;;5.25;2.03;;;;;;;;;;5075019;28;20037;-88
2023/08/04 02:52:16;;;;;;;5.05;2.20;;;;;;;;;;5076909;28;20527;-89
2023/08/04 02:54:43;;;;;;;6.53;2.70;;;;;;;;;;5042746;28;20052;-88
2023/08/04 02:57:09;;;;;;;7.45;2.13;;;;;;;;;;5059252;28;20053;-88
2023/08/04 02:59:36;;;;;;;4.00;2.33;;;;;;;;;;5058548;28;20057;-89
2023/08/04 03:02:02;;;;;;;9.18;2.58;;;;;;;;;;5076053;28;20056;-89
2023/08/04 03:04:28;;;;;;;5.55;2.42;;;;;;;;;;5075553;28;20052;-89
2023/08/04 03:06:54;;;;;;;4.93;2.60;;;;;;;;;;5075179;28;20052;-89
2023/08/04 03:09:20;;;;;;;4.80;2.28;;;;;;;;;;5058697;28;20045;-89
2023/08/04 03:11:46;;;;;;;4.60;2.72;;;;;;;;;;5074375;28;20127;-89
2023/08/04 03:14:12;;;;;;;5.00;2.30;;;;;;;;;;5075425;28;20481;-88
2023/08/04 03:16:39;;;;;;;5.18;2.40;;;;;;;;;;5058434;28;20048;-89
2023/08/04 03:19:05;;;;;;;6.07;2.97;;;;;;;;;;5058701;28;20393;-89
2023/08/04 03:21:31;;;;;;;5.55;2.53;;;;;;;;;;5074789;28;20060;-89
2023/08/04 03:23:57;;;;;;;6.28;2.60;;;;;;;;;;5074518;28;20047;-88
2023/08/04 03:26:23;;;;;;;6.82;2.92;;;;;;;;;;5074953;28;20048;-89
2023/08/04 03:28:49;;;;;;;6.03;3.10;;;;;;;;;;5058864;28;20059;-89
2023/08/04 03:31:15;;;;;;;3.60;2.70;;;;;;;;;;5075825;28;20044;-89
2023/08/04 03:33:41;;;;;;;7.35;2.70;;;;;;;;;;5075457;28;20049;-89
2023/08/04 03:36:08;;;;;;;6.68;2.63;;;;;;;;;;5073922;28;20113;-89
2023/08/04 03:38:34;;;;;;;5.45;2.67;;;;;;;;;;5074520;28;20052;-89
2023/08/04 03:41:00;;;;;;;4.28;2.92;;;;;;;;;;5075667;28;20090;-89
2023/08/04 03:43:26;;;;;;;7.28;3.10;;;;;;;;;;5058307;28;20041;-89
2023/08/04 03:45:53;;;;;;;5.97;3.08;;;;;;;;;;5057860;28;20044;-89
2023/08/04 03:48:19;;;;;;;6.43;2.95;;;;;;;;;;5074459;28;20097;-88
2023/08/04 03:50:45;;;;;;;4.90;2.95;;;;;;;;;;5074327;28;20056;-89
2023/08/04 03:53:11;;;;;;;4.30;2.72;;;;;;;;;;5058120;28;20503;-88
2023/08/04 03:55:37;;;;;;;6.75;3.17;;;;;;;;;;5074645;28;20041;-88
2023/08/04 03:58:03;;;;;;;6.95;3.55;;;;;;;;;;5073816;28;20067;-88
2023/08/04 04:00:31;;;;;;;4.47;2.70;;;;;;;;;;5073823;28;20048;-89
2023/08/04 04:02:57;;;;;;;8.07;2.78;;;;;;;;;;5074501;28;20060;-88
2023/08/04 04:05:23;;;;;;;7.15;3.60;;;;;;;;;;5057143;28;20084;-89
2023/08/04 04:07:49;;;;;;;6.50;3.22;;;;;;;;;;5074887;28;20052;-88
2023/08/04 04:10:15;;;;;;;6.93;3.50;;;;;;;;;;5073600;28;20476;-88
2023/08/04 04:12:41;;;;;;;7.38;3.38;;;;;;;;;;5074263;28;20131;-88
2023/08/04 04:15:08;;;;;;;5.97;2.63;;;;;;;;;;5057666;28;20048;-88
2023/08/04 04:17:34;;;;;;;2.92;2.30;;;;;;;;;;5074785;28;20512;-88
2023/08/04 04:20:00;;;;;;;3.35;2.38;;;;;;;;;;5057899;28;20045;-88
2023/08/04 04:22:27;;;;;;;3.58;2.80;;;;;;;;;;5041005;28;20389;-88
2023/08/04 04:24:53;;;;;;;3.60;2.25;;;;;;;;;;5074104;28;20040;-88
2023/08/04 04:27:19;;;;;;;7.50;2.30;;;;;;;;;;5057611;28;20512;-88
2023/08/04 04:29:45;;;;;;;4.03;2.47;;;;;;;;;;5075189;28;20044;-88
2023/08/04 04:32:11;;;;;;;3.72;1.90;;;;;;;;;;5057040;28;20048;-88
2023/08/04 04:34:37;;;;;;;2.90;2.42;;;;;;;;;;5057969;28;20083;-88
2023/08/04 04:37:04;;;;;;;2.85;2.20;;;;;;;;;;5056971;28;20144;-88
2023/08/04 04:39:30;;;;;;;3.13;2.47;;;;;;;;;;5074827;28;20499;-88
2023/08/04 04:41:56;;;;;;;4.13;2.65;;;;;;;;;;5074310;28;20040;-88
2023/08/04 04:44:22;;;;;;;3.22;2.92;;;;;;;;;;5039814;28;20050;-88
2023/08/04 04:46:48;;;;;;;4.57;2.40;;;;;;;;;;5056097;28;20053;-88
2023/08/04 04:49:16;;;;;;;6.63;2.45;;;;;;;;;;5055921;28;20053;-88
2023/08/04 04:51:42;;;;;;;4.20;2.55;;;;;;;;;;5059920;28;20055;-88
2023/08/04 04:54:08;;;;;;;5.35;2.70;;;;;;;;;;5077097;28;20057;-88
2023/08/04 04:56:34;;;;;;;3.78;2.15;;;;;;;;;;5078225;28;20114;-89
2023/08/04 04:59:00;;;;;;;7.15;2.75;;;;;;;;;;5076992;28;20055;-89
2023/08/04 05:01:27;;;;;;;2.95;2.25;;;;;;;;;;5077656;28;20052;-89
2023/08/04 05:03:53;;;;;;;3.42;2.15;;;;;;;;;;5078588;28;20106;-89
2023/08/04 05:06:19;;;;;;;5.18;2.40;;;;;;;;;;5060073;28;20607;-89
2023/08/04 05:08:45;;;;;;;5.00;2.13;;;;;;;;;;5060898;28;20105;-89
2023/08/04 05:11:11;;;;;;;3.03;2.25;;;;;;;;;;5060521;28;20052;-88
2023/08/04 05:13:37;;;;;;;3.78;1.98;;;;;;;;;;5044504;28;20097;-89
2023/08/04 05:16:04;;;;;;;6.05;2.00;;;;;;;;;;5077403;28;20044;-89
2023/08/04 05:18:31;;;;;;;3.17;2.05;;;;;;;;;;5076805;28;20124;-89
2023/08/04 05:20:57;;;;;;;2.95;2.00;;;;;;;;;;5077556;28;20370;-89
2023/08/04 05:23:23;;;;;;;5.00;2.03;;;;;;;;;;5061354;28;20101;-89
2023/08/04 05:25:49;;;;;;;4.65;2.80;;;;;;;;;;5077634;28;20044;-89
2023/08/04 05:28:22;;;;;;;5.00;2.50;;;;;;;;;;5061445;28;20048;-89
2023/08/04 05:30:48;;;;;;;5.05;3.08;;;;;;;;;;5061009;28;20052;-89
2023/08/04 05:33:14;;;;;;;5.57;3.08;;;;;;;;;;5044055;28;20048;-89
2023/08/04 05:35:44;;;;;;;3.25;2.13;;;;;;;;;;5077177;28;20040;-89
2023/08/04 05:38:10;;;;;;;4.03;3.00;;;;;;;;;;5060931;28;20045;-89
2023/08/04 05:40:36;;;;;;;4.10;2.33;;;;;;;;;;5076955;28;20074;-89
2023/08/04 05:43:04;;;;;;;3.00;2.28;;;;;;;;;;5060598;28;20135;-89
2023/08/04 05:45:34;;;;;;;2.67;2.28;;;;;;;;;;5060917;28;20135;-89
2023/08/04 05:48:00;;;;;;;2.63;2.42;;;;;;;;;;5078190;28;20392;-89
2023/08/04 05:50:27;;;;;;;2.60;2.00;;;;;;;;;;5077376;28;20047;-89
2023/08/04 05:52:53;;;;;;;3.40;2.13;;;;;;;;;;5060039;28;20049;-89
2023/08/04 05:55:23;;;;;;;3.83;2.13;;;;;;;;;;5060288;28;20098;-89
2023/08/04 05:57:50;;;;;;;2.50;2.13;;;;;;;;;;5060905;28;20108;-89
2023/08/04 06:00:16;;;;;;;4.55;2.00;;;;;;;;;;5061559;28;20090;-88
2023/08/04 06:02:44;;;;;;;3.13;1.90;;;;;;;;;;5076708;28;20101;-89
2023/08/04 06:05:11;;;;;;;4.18;2.50;;;;;;;;;;5063347;28;20049;-89
2023/08/04 06:07:37;;;;;;;4.00;1.75;;;;;;;;;;5059838;28;20044;-89
2023/08/04 06:10:03;;;;;;;2.13;1.88;;;;;;;;;;5060244;28;20044;-89
2023/08/04 06:12:30;;;;;;;40.10;28.75;;;;;;;;;;5076791;28;20045;-89
2023/08/04 06:14:56;;;;;;;2.88;1.73;;;;;;;;;;5060860;28;20127;-89
2023/08/04 06:17:22;;;;;;;4.60;1.52;;;;;;;;;;5059080;28;20048;-89
2023/08/04 06:19:48;;;;;;;2.53;1.50;;;;;;;;;;5059720;28;20044;-89
2023/08/04 06:22:15;;;;;;;1.33;0.90;;;;;;;;;;5076741;28;20048;-89
2023/08/04 06:24:41;;;;;;;2.38;1.25;;;;;;;;;;5059983;28;20041;-90
2023/08/04 06:27:08;;;;;;;1.88;1.20;;;;;;;;;;5077414;28;20040;-89
2023/08/04 06:29:34;;;;;;;2.30;1.10;;;;;;;;;;5075649;28;20044;-89
2023/08/04 06:32:01;;;;;;;3.17;0.95;;;;;;;;;;5076049;28;20056;-88
2023/08/04 06:34:27;;;;;;;1.50;0.65;;;;;;;;;;5059297;28;20445;-88
2023/08/04 06:36:53;;;;;;;2.88;0.90;;;;;;;;;;5042054;28;20052;-89
2023/08/04 06:39:22;;;;;;;2.95;1.15;;;;;;;;;;5058789;28;20056;-88
2023/08/04 06:41:48;;;;;;;1.67;0.70;;;;;;;;;;5059191;28;20095;-89
2023/08/04 06:44:14;;;;;;;2.45;0.43;;;;;;;;;;5075456;28;20083;-88
2023/08/04 06:46:40;;;;;;;1.90;0.70;;;;;;;;;;5076445;28;20040;-89
2023/08/04 06:49:06;;;;;;;1.67;0.50;;;;;;;;;;5042625;28;20060;-88
2023/08/04 06:51:32;;;;;;;1.35;0.35;;;;;;;;;;5074665;28;20048;-88
2023/08/04 06:53:58;;;;;;;1.33;0.32;;;;;;;;;;5075596;28;20047;-88
2023/08/04 06:56:24;;;;;;;2.25;0.77;;;;;;;;;;5057934;28;20052;-88
2023/08/04 06:58:50;;;;;;;1.15;0.40;;;;;;;;;;5041823;28;20056;-88
2023/08/04 07:01:16;;;;;;;1.58;0.40;;;;;;;;;;5075271;28;20052;-87
2023/08/04 07:03:45;;;;;;;2.67;0.40;;;;;;;;;;5075476;28;20131;-88
2023/08/04 07:06:11;;;;;;;2.55;0.40;;;;;;;;;;5057773;28;20105;-88
2023/08/04 07:08:37;;;;;;;2.55;0.40;;;;;;;;;;5074900;28;20049;-88
2023/08/04 07:11:03;;;;;;;1.90;0.30;;;;;;;;;;5075498;28;20062;-88
2023/08/04 07:13:29;;;;;;;21.92;0.57;;;;;;;;;;5057089;28;20067;-88
2023/08/04 07:15:59;;;;;;;16.88;0.28;;;;;;;;;;5075097;28;20056;-88
2023/08/04 07:18:25;;;;;;;0.28;0.10;;;;;;;;;;5074519;28;20041;-88
2023/08/04 07:20:51;;;;;;;0.95;0.10;;;;;;;;;;5074953;28;20368;-88
2023/08/04 07:23:17;;;;;;;0.15;0.00;;;;;;;;;;5075344;28;20098;-88
2023/08/04 07:25:44;;;;;;;0.10;0.00;;;;;;;;;;5059130;28;20058;-88
2023/08/04 07:28:10;;;;;;;5.28;0.20;;;;;;;;;;5075115;28;20036;-88
2023/08/04 07:30:37;;;;;;;0.20;0.00;;;;;;;;;;5058875;28;20143;-88
2023/08/04 07:33:07;;;;;;;1.23;0.10;;;;;;;;;;5058767;28;20123;-86
2023/08/04 07:35:33;;;;;;;1.55;0.00;;;;;;;;;;5040951;28;20519;-88
2023/08/04 07:37:59;;;;;;;0.85;0.08;;;;;;;;;;5058374;28;20418;-88
2023/08/04 07:40:25;;;;;;;0.60;0.10;;;;;;;;;;5074383;28;20495;-87
2023/08/04 07:42:51;;;;;;;0.10;0.00;;;;;;;;;;5056458;28;20044;-88
2023/08/04 07:45:18;;;;;;;0.13;0.13;;;;;;;;;;5058166;28;20086;-88
2023/08/04 07:47:44;;;;;;;0.13;0.08;;;;;;;;;;5081141;28;20048;-88
2023/08/04 07:50:10;;;;;;;0.80;0.10;;;;;;;;;;5057617;28;20041;-88
2023/08/04 07:52:36;;;;;;;0.13;0.00;;;;;;;;;;5057644;28;20051;-88
2023/08/04 07:55:02;;;;;;;1.70;0.20;;;;;;;;;;5073741;28;20105;-87
2023/08/04 07:57:29;;;;;;;2.05;0.20;;;;;;;;;;5039805;28;20071;-88
2023/08/04 07:59:55;;;;;;;0.20;0.00;;;;;;;;;;5058012;28;20441;-89
2023/08/04 08:02:21;;;;;;;0.30;0.00;;;;;;;;;;5063515;28;20044;-89
2023/08/04 08:04:47;;;;;;;0.60;0.10;;;;;;;;;;5057520;28;20380;-88
2023/08/04 08:07:13;;;;;;;0.70;0.00;;;;;;;;;;5053228;28;20050;-88
2023/08/04 08:09:39;;;;;;;2.10;0.10;;;;;;;;;;5071355;28;20123;-88
2023/08/04 08:12:06;;;;;;;0.43;0.28;;;;;;;;;;5100218;28;20052;-87
2023/08/04 08:14:32;;;;;;;1.15;0.00;;;;;;;;;;5039120;28;20099;-87
2023/08/04 08:16:58;;;;;;;1.67;0.05;;;;;;;;;;5074234;28;20133;-87
2023/08/04 08:19:24;;;;;;;1.48;0.20;;;;;;;;;;5073812;28;20047;-87
2023/08/04 08:21:50;;;;;;;1.17;0.20;;;;;;;;;;5056601;28;20033;-87
2023/08/04 08:24:16;;;;;;;1.90;0.17;;;;;;;;;;5058244;28;20048;-84
2023/08/04 08:26:42;;;;;;;2.08;0.22;;;;;;;;;;5077479;28;20051;-87
2023/08/04 08:29:08;;;;;;;1.42;0.20;;;;;;;;;;5078044;28;20084;-86
2023/08/04 08:31:34;;;;;;;1.02;0.20;;;;;;;;;;5060959;28;20511;-86
2023/08/04 08:34:00;;;;;;;0.95;0.20;;;;;;;;;;5061219;28;20473;-87
2023/08/04 08:36:26;;;;;;;0.95;0.20;;;;;;;;;;5075584;28;20127;-87
2023/08/04 08:38:53;;;;;;;1.00;0.20;;;;;;;;;;5060008;28;20032;-86
2023/08/04 08:41:19;;;;;;;2.97;0.20;;;;;;;;;;5044139;28;20040;-86
2023/08/04 08:43:46;;;;;;;0.45;0.10;;;;;;;;;;5077351;28;20066;-86
2023/08/04 08:46:13;;;;;;;1.02;0.20;;;;;;;;;;5060928;28;20079;-86
2023/08/04 08:48:40;;;;;;;1.65;0.25;;;;;;;;;;5077322;28;20119;-87
2023/08/04 08:51:12;;;;;;;0.57;0.20;;;;;;;;;;5060766;28;20484;-87
2023/08/04 08:53:39;;;;;;;1.45;0.20;;;;;;;;;;5077604;28;20469;-87
2023/08/04 08:56:08;;;;;;;2.42;0.40;;;;;;;;;;5060772;28;20040;-87
2023/08/04 08:58:34;;;;;;;0.88;0.20;;;;;;;;;;5077313;28;20063;-87
2023/08/04 09:01:01;;;;;;;0.93;0.30;;;;;;;;;;5077809;28;20048;-87
2023/08/04 09:03:27;;;;;;;1.10;0.30;;;;;;;;;;5078353;28;20037;-87
2023/08/04 09:05:54;;;;;;;0.95;0.30;;;;;;;;;;5043519;28;20152;-86
2023/08/04 09:08:20;;;;;;;0.65;0.20;;;;;;;;;;5076665;28;20045;-87
2023/08/04 09:10:47;;;;;;;1.00;0.30;;;;;;;;;;5060826;28;20040;-87
2023/08/04 09:13:13;;;;;;;1.80;0.30;;;;;;;;;;5060709;28;20055;-87
2023/08/04 09:15:49;;;;;;;1.67;0.20;;;;;;;;;;5060542;28;20052;-87
2023/08/04 09:18:26;;;;;;;0.98;0.20;;;;;;;;;;5078217;28;20036;-87
2023/08/04 09:21:00;;;;;;;1.63;0.20;;;;;;;;;;5060037;28;20119;-86
2023/08/04 09:23:27;;;;;;;0.50;0.20;;;;;;;;;;5077737;28;20044;-86
2023/08/04 09:25:54;;;;;;;0.55;0.20;;;;;;;;;;5059706;28;20044;-87
2023/08/04 09:28:20;;;;;;;0.55;0.10;;;;;;;;;;5059149;28;20067;-87
2023/08/04 09:31:01;;;;;;;4.25;0.80;;;;;;;;;;5076131;28;20040;-86
2023/08/04 09:33:27;;;;;;;1.48;0.22;;;;;;;;;;5076326;28;20383;-86
2023/08/04 09:36:01;;;;;;;1.30;0.20;;;;;;;;;;5059078;28;20471;-86
2023/08/04 09:38:28;;;;;;;1.52;0.20;;;;;;;;;;5075300;28;20430;-86
2023/08/04 09:41:05;;;;;;;3.22;0.30;;;;;;;;;;5059585;28;20048;-86
2023/08/04 09:43:31;;;;;;;1.83;0.30;;;;;;;;;;5074698;28;20036;-87
2023/08/04 09:45:58;;;;;;;1.00;0.20;;;;;;;;;;5058905;28;20044;-85
2023/08/04 09:48:28;;;;;;;1.52;0.17;;;;;;;;;;5075505;28;20102;-85
2023/08/04 09:51:10;;;;;;;1.30;0.15;;;;;;;;;;5058548;28;20468;-88
2023/08/04 09:53:47;;;;;;;1.60;0.20;;;;;;;;;;5059008;28;20435;-87
2023/08/04 09:56:14;;;;;;;0.93;0.20;;;;;;;;;;5075830;28;20380;-84
2023/08/04 09:58:41;;;;;;;1.40;0.20;;;;;;;;;;5075208;28;20123;-86
2023/08/04 10:01:07;;;;;;;0.77;0.40;;;;;;;;;;5059019;28;20090;-85
2023/08/04 10:03:34;;;;;;;0.20;0.10;;;;;;;;;;5076391;28;20036;-86
2023/08/04 10:06:00;;;;;;;1.65;0.20;;;;;;;;;;5077047;28;20040;-86
2023/08/04 10:08:36;;;;;;;0.38;0.20;;;;;;;;;;5059306;28;20036;-86
2023/08/04 10:11:03;;;;;;;1.27;0.22;;;;;;;;;;5076177;28;20045;-87
2023/08/04 10:13:32;;;;;;;1.50;0.30;;;;;;;;;;5076878;28;20040;-88
2023/08/04 10:15:59;;;;;;;1.17;0.30;;;;;;;;;;5076567;28;20044;-88
2023/08/04 10:18:25;;;;;;;1.00;0.20;;;;;;;;;;5059547;28;20128;-88
2023/08/04 10:20:52;;;;;;;0.88;0.30;;;;;;;;;;5075925;28;20044;-88
2023/08/04 10:23:18;;;;;;;1.02;0.30;;;;;;;;;;5057968;28;20049;-88
2023/08/04 10:25:54;;;;;;;2.05;0.20;;;;;;;;;;5074810;28;20523;-88
2023/08/04 10:28:21;;;;;;;2.35;0.30;;;;;;;;;;5076961;28;20091;-88
2023/08/04 10:30:47;;;;;;;2.58;0.20;;;;;;;;;;5075307;28;20071;-89
2023/08/04 10:33:13;;;;;;;1.10;0.30;;;;;;;;;;5059461;28;20037;-89
2023/08/04 10:35:58;;;;;;;2.60;0.32;;;;;;;;;;5042257;28;20123;-89
2023/08/04 10:38:24;;;;;;;2.83;0.60;;;;;;;;;;5075524;28;20048;-89
2023/08/04 10:41:05;;;;;;;2.95;0.40;;;;;;;;;;5059209;28;20477;-89
2023/08/04 10:43:31;;;;;;;2.13;0.35;;;;;;;;;;5059144;28;20044;-88
2023/08/04 10:46:05;;;;;;;2.63;0.38;;;;;;;;;;5075977;28;20036;-89
2023/08/04 10:48:31;;;;;;;;;;;;;;;;;;5060463;28;20052;-88
2023/08/04 10:50:57;;;;;;;3.00;0.30;;;;;;;;;;5075591;28;20031;-88
2023/08/04 10:53:23;;;;;;;2.08;0.30;;;;;;;;;;5075602;28;20067;-87
2023/08/04 10:55:54;;;;;;;1.75;0.30;;;;;;;;;;5058660;28;20049;-87
2023/08/04 10:58:21;;;;;;;0.47;0.20;;;;;;;;;;5075148;28;20056;-87
2023/08/04 11:00:47;;;;;;;2.00;0.30;;;;;;;;;;5074977;28;20045;-87
2023/08/04 11:03:24;;;;;;;2.08;0.30;;;;;;;;;;5058428;28;20048;-86
2023/08/04 11:05:50;;;;;;;2.20;0.30;;;;;;;;;;5074787;28;20376;-87
2023/08/04 11:08:18;;;;;;;1.35;0.50;;;;;;;;;;5075033;28;20053;-87
2023/08/04 11:10:48;;;;;;;1.23;0.20;;;;;;;;;;5043158;28;20052;-87
2023/08/04 11:13:17;;;;;;;2.33;0.30;;;;;;;;;;5075124;28;20083;-87
2023/08/04 11:15:43;;;;;;;1.23;0.30;;;;;;;;;;5076411;28;20083;-87
2023/08/04 11:18:13;;;;;;;1.48;0.30;;;;;;;;;;5075013;28;20439;-87
2023/08/04 11:20:43;;;;;;;1.50;0.30;;;;;;;;;;5057914;28;20045;-87
2023/08/04 11:23:10;;;;;;;1.77;0.40;;;;;;;;;;5057946;28;20048;-87
2023/08/04 11:25:36;;;;;;;3.20;0.35;;;;;;;;;;5075371;28;20036;-87
2023/08/04 11:28:03;;;;;;;1.00;0.30;;;;;;;;;;5075616;28;20041;-87
2023/08/04 11:30:29;;;;;;;0.85;0.25;;;;;;;;;;5074865;28;20051;-86
2023/08/04 11:32:55;;;;;;;0.65;0.30;;;;;;;;;;5058439;28;20044;-89
2023/08/04 11:35:21;;;;;;;1.30;0.20;;;;;;;;;;5075415;28;20069;-88
2023/08/04 11:37:47;;;;;;;1.33;0.20;;;;;;;;;;5041114;28;20131;-89
2023/08/04 11:40:20;;;;;;;2.45;0.30;;;;;;;;;;5058244;28;20089;-89
2023/08/04 11:42:47;;;;;;;0.68;0.20;;;;;;;;;;5075008;28;20040;-89
2023/08/04 11:45:13;;;;;;;0.50;0.10;;;;;;;;;;5074753;28;20135;-89
2023/08/04 11:47:39;;;;;;;0.80;0.20;;;;;;;;;;5057718;28;20479;-89
2023/08/04 11:50:06;;;;;;;0.32;0.10;;;;;;;;;;5074452;28;20045;-89
2023/08/04 11:52:37;;;;;;;0.82;0.20;;;;;;;;;;5058117;28;20089;-89
2023/08/04 11:55:04;;;;;;;1.42;0.30;;;;;;;;;;5041795;28;20415;-87
2023/08/04 11:57:30;;;;;;;1.20;0.20;;;;;;;;;;5057685;28;20460;-87
2023/08/04 11:59:57;;;;;;;1.88;0.30;;;;;;;;;;5055935;28;20097;-87
2023/08/04 12:02:24;;;;;;;0.50;0.20;;;;;;;;;;5056858;28;20041;-86
2023/08/04 12:05:06;;;;;;;0.60;0.30;;;;;;;;;;5056806;28;20044;-87
2023/08/04 12:07:33;;;;;;;2.38;0.25;;;;;;;;;;5056824;28;20032;-88
2023/08/04 12:09:59;;;;;;;1.70;0.38;;;;;;;;;;5058304;28;20048;-89
2023/08/04 12:12:35;;;;;;;1.77;0.30;;;;;;;;;;5075069;28;20040;-90
2023/08/04 12:15:01;;;;;;;3.38;0.40;;;;;;;;;;5074974;28;20064;-80
2023/08/04 12:17:36;;;;;;;1.95;0.40;;;;;;;;;;5074581;28;20128;-79
2023/08/04 12:20:04;;;;;;;1.65;0.60;;;;;;;;;;5056574;28;20045;-80
2023/08/04 12:22:30;;;;;;;1.90;0.40;;;;;;;;;;5074450;28;20094;-81
2023/08/04 12:24:57;;;;;;;1.45;0.50;;;;;;;;;;5072219;28;20119;-82
2023/08/04 12:27:23;;;;;;;3.63;0.60;;;;;;;;;;5073379;28;20036;-83
2023/08/04 12:29:49;;;;;;;1.33;0.50;;;;;;;;;;5073685;28;20059;-85
2023/08/04 12:32:15;;;;;;;4.80;0.63;;;;;;;;;;5073565;28;20380;-86
2023/08/04 12:34:41;;;;;;;2.15;0.70;;;;;;;;;;5073486;28;20097;-87
2023/08/04 12:37:07;;;;;;;2.53;0.60;;;;;;;;;;5057800;28;20044;-88
2023/08/04 12:39:33;;;;;;;2.97;0.40;;;;;;;;;;5058034;28;20055;-89
2023/08/04 12:41:59;;;;;;;2.53;0.70;;;;;;;;;;5057193;28;20036;-90
2023/08/04 12:44:25;;;;;;;1.27;0.30;;;;;;;;;;5074533;28;20082;-91
2023/08/04 12:46:52;;;;;;;1.17;0.30;;;;;;;;;;5057289;28;20476;-89
2023/08/04 12:49:18;;;;;;;0.85;0.22;;;;;;;;;;5073738;28;20066;-90
2023/08/04 12:51:44;;;;;;;1.42;0.30;;;;;;;;;;5041534;28;20369;-91
2023/08/04 12:54:10;;;;;;;1.30;0.20;;;;;;;;;;5074661;28;20059;-89
2023/08/04 12:56:36;;;;;;;1.17;0.40;;;;;;;;;;5074567;28;20105;-90
2023/08/04 12:59:02;;;;;;;1.27;0.30;;;;;;;;;;5056649;28;20044;-90
2023/08/04 13:01:28;;;;;;;1.63;0.50;;;;;;;;;;5040835;28;20048;-88
2023/08/04 13:03:54;;;;;;;1.92;0.40;;;;;;;;;;5056746;28;20400;-90
2023/08/04 13:06:20;;;;;;;2.08;0.40;;;;;;;;;;5073082;28;20055;-89
2023/08/04 13:08:47;;;;;;;1.90;0.30;;;;;;;;;;5057054;28;20043;-88
2023/08/04 13:11:18;;;;;;;3.00;0.40;;;;;;;;;;5057663;28;20048;-87
2023/08/04 13:13:44;;;;;;;2.25;0.50;;;;;;;;;;5061404;28;20696;-87
2023/08/04 13:16:10;;;;;;;3.13;0.77;;;;;;;;;;5061434;28;20041;-87
2023/08/04 13:18:36;;;;;;;5.70;0.50;;;;;;;;;;5076734;28;20041;-87
2023/08/04 13:21:06;;;;;;;2.35;0.63;;;;;;;;;;5077221;28;20051;-87
2023/08/04 13:23:32;;;;;;;4.70;0.57;;;;;;;;;;5061174;28;20397;-86
2023/08/04 13:26:05;;;;;;;5.35;0.60;;;;;;;;;;5077406;28;20040;-87
2023/08/04 13:28:34;;;;;;;4.00;0.50;;;;;;;;;;5077007;28;20044;-87
2023/08/04 13:31:04;;;;;;;2.08;0.55;;;;;;;;;;5077778;28;20044;-87
2023/08/04 13:33:30;;;;;;;3.20;0.60;;;;;;;;;;5077139;28;20485;-87
2023/08/04 13:35:56;;;;;;;0.70;0.30;;;;;;;;;;5059977;28;20071;-87
2023/08/04 13:38:22;;;;;;;1.00;0.30;;;;;;;;;;5059907;28;20397;-87
2023/08/04 13:40:49;;;;;;;3.08;0.40;;;;;;;;;;5076610;28;20045;-87
2023/08/04 13:43:15;;;;;;;2.10;0.30;;;;;;;;;;5059580;28;20044;-87
2023/08/04 13:45:41;;;;;;;3.90;0.40;;;;;;;;;;5059353;28;20057;-87
2023/08/04 13:48:07;;;;;;;3.33;0.45;;;;;;;;;;5059844;28;20059;-87
2023/08/04 13:50:33;;;;;;;1.17;0.40;;;;;;;;;;5076349;28;20082;-87
2023/08/04 13:52:59;;;;;;;1.77;0.38;;;;;;;;;;5043200;28;20140;-87
2023/08/04 13:55:25;;;;;;;1.30;0.28;;;;;;;;;;5059838;28;20044;-88
2023/08/04 13:57:51;;;;;;;2.88;0.30;;;;;;;;;;5075900;28;20041;-87
2023/08/04 14:00:18;;;;;;;1.35;0.25;;;;;;;;;;5076336;28;20052;-89
2023/08/04 14:02:44;;;;;;;0.90;0.30;;;;;;;;;;5059042;28;20075;-88
2023/08/04 14:05:10;;;;;;;1.42;0.30;;;;;;;;;;5059404;28;20084;-88
2023/08/04 14:07:41;;;;;;;1.48;0.20;;;;;;;;;;5074819;28;20048;-88
2023/08/04 14:10:11;;;;;;;0.70;0.20;;;;;;;;;;5058233;28;20059;-88
2023/08/04 14:12:37;;;;;;;1.67;0.20;;;;;;;;;;5058824;28;20048;-88
2023/08/04 14:15:04;;;;;;;1.98;0.30;;;;;;;;;;5058818;28;20044;-87
2023/08/04 14:17:30;;;;;;;0.85;0.30;;;;;;;;;;5058770;28;20489;-87
2023/08/04 14:19:56;;;;;;;1.98;0.20;;;;;;;;;;5075473;28;20093;-86
2023/08/04 14:22:23;;;;;;;3.08;0.28;;;;;;;;;;5075175;28;20045;-86
2023/08/04 14:24:49;;;;;;;5.78;5.47;;;;;;;;;;5075500;28;20485;-87
2023/08/04 14:27:16;;;;;;;3.20;0.52;;;;;;;;;;5058963;28;20500;-87
2023/08/04 14:29:43;;;;;;;0.80;0.10;;;;;;;;;;5076009;28;20079;-87
2023/08/04 14:32:09;;;;;;;2.38;0.30;;;;;;;;;;5075410;28;20382;-87
2023/08/04 14:34:36;;;;;;;1.80;0.20;;;;;;;;;;5074940;28;20045;-87
2023/08/04 14:37:03;;;;;;;1.35;0.28;;;;;;;;;;5058242;28;20084;-87
2023/08/04 14:39:29;;;;;;;2.20;0.30;;;;;;;;;;5058894;28;20044;-88
2023/08/04 14:41:55;;;;;;;2.25;0.30;;;;;;;;;;5075333;28;20114;-88